Time;durP1;ratioP1;P1;durP2;ratioP2;P2;SDS_P1;SDS_P2;PMS_P1;PMS_P2;Temp;Humidity;BMP_temperature;BMP_pressure;BME280_temperature;BME280_humidity;BME280_pressure;Samples;Min_cycle;Max_cycle;Signal;HPM_P1;HPM_P2
2023/11/23 00:02:05;;;;;;;12.17;4.43;;;6.30;99.90;;;;;;5073331;28;20409;-70
2023/11/23 00:04:31;;;;;;;8.00;4.27;;;6.30;99.90;;;;;;5073425;28;20419;-70
2023/11/23 00:06:57;;;;;;;5.70;3.93;;;6.40;99.90;;;;;;5072996;28;20408;-70
2023/11/23 00:09:24;;;;;;;8.17;4.47;;;6.50;99.90;;;;;;5073005;28;20432;-70
2023/11/23 00:11:49;;;;;;;10.47;5.60;;;6.50;99.90;;;;;;5073056;28;20215;-70
2023/11/23 00:14:15;;;;;;;6.13;4.00;;;6.60;99.90;;;;;;5055159;28;20834;-70
2023/11/23 00:16:43;;;;;;;8.00;5.30;;;6.70;99.90;;;;;;5072862;28;20533;-68
2023/11/23 00:19:09;;;;;;;11.80;4.67;;;6.70;99.90;;;;;;5072955;28;20923;-69
2023/11/23 00:21:35;;;;;;;7.93;4.67;;;6.80;99.90;;;;;;5072872;28;20411;-69
2023/11/23 00:24:00;;;;;;;8.67;5.00;;;6.80;99.90;;;;;;5072887;28;20404;-69
2023/11/23 00:26:26;;;;;;;9.90;5.87;;;6.90;99.90;;;;;;5072736;28;20400;-69
2023/11/23 00:28:51;;;;;;;10.67;5.43;;;7.00;99.90;;;;;;5072726;28;20174;-69
2023/11/23 00:31:17;;;;;;;8.10;5.03;;;7.10;99.90;;;;;;5072222;28;20202;-69
2023/11/23 00:33:42;;;;;;;15.60;5.90;;;7.10;99.90;;;;;;5072564;28;20285;-69
2023/11/23 00:36:09;;;;;;;9.40;5.93;;;7.10;99.90;;;;;;5072423;28;20510;-69
2023/11/23 00:38:34;;;;;;;11.83;5.57;;;7.10;99.90;;;;;;5072406;28;20174;-69
2023/11/23 00:41:00;;;;;;;7.13;5.40;;;7.20;99.90;;;;;;5072568;28;20411;-69
2023/11/23 00:43:26;;;;;;;11.60;5.23;;;7.20;99.90;;;;;;5072422;28;20559;-69
2023/11/23 00:45:52;;;;;;;13.03;4.93;;;7.20;99.90;;;;;;5072347;28;20419;-69
2023/11/23 00:48:17;;;;;;;10.13;5.57;;;7.30;99.90;;;;;;5072519;28;20170;-70
2023/11/23 00:50:43;;;;;;;7.63;4.97;;;7.30;99.90;;;;;;5072267;28;20216;-69
2023/11/23 00:53:08;;;;;;;9.83;4.60;;;7.50;99.90;;;;;;5071697;28;20201;-70
2023/11/23 00:55:34;;;;;;;9.90;4.13;;;7.60;99.90;;;;;;5071443;28;20159;-70
2023/11/23 00:57:59;;;;;;;9.00;5.30;;;7.60;99.90;;;;;;5071573;28;20162;-70
2023/11/23 01:00:25;;;;;;;7.93;4.90;;;7.60;99.90;;;;;;5071473;28;20194;-70
2023/11/23 01:02:51;;;;;;;11.40;5.60;;;7.70;99.90;;;;;;5071494;28;20170;-70
2023/11/23 01:05:18;;;;;;;8.40;5.27;;;7.70;99.90;;;;;;5071194;28;20194;-70
2023/11/23 01:07:44;;;;;;;6.93;4.40;;;7.80;99.90;;;;;;5071501;28;20436;-70
2023/11/23 01:10:10;;;;;;;6.47;4.60;;;7.90;99.90;;;;;;5071228;28;20448;-70
2023/11/23 01:12:36;;;;;;;8.23;4.67;;;8.00;99.90;;;;;;5071262;28;20240;-70
2023/11/23 01:15:02;;;;;;;9.93;5.20;;;8.00;99.90;;;;;;5071034;28;20428;-70
2023/11/23 01:17:27;;;;;;;9.33;5.30;;;8.10;99.90;;;;;;5053311;28;20177;-70
2023/11/23 01:19:53;;;;;;;7.90;5.30;;;8.10;99.90;;;;;;5070808;28;20285;-70
2023/11/23 01:22:18;;;;;;;7.43;5.00;;;8.00;99.90;;;;;;5071160;28;20625;-70
2023/11/23 01:24:44;;;;;;;9.60;5.40;;;8.00;99.90;;;;;;5071300;28;20201;-70
2023/11/23 01:27:10;;;;;;;7.20;4.90;;;8.10;99.90;;;;;;5070611;28;20170;-70
2023/11/23 01:29:35;;;;;;;8.43;6.13;;;8.10;99.90;;;;;;5071039;28;20182;-70
2023/11/23 01:32:01;;;;;;;7.27;5.00;;;8.10;99.90;;;;;;5070734;28;20446;-70
2023/11/23 01:34:26;;;;;;;11.47;5.90;;;8.10;99.90;;;;;;5071006;28;20251;-70
2023/11/23 01:36:52;;;;;;;8.23;5.00;;;8.10;99.90;;;;;;5070796;28;20167;-70
2023/11/23 01:39:18;;;;;;;9.93;6.60;;;8.00;99.90;;;;;;5070628;28;20182;-70
2023/11/23 01:41:44;;;;;;;10.60;6.30;;;8.00;99.90;;;;;;5069641;28;20403;-70
2023/11/23 01:44:11;;;;;;;9.10;5.27;;;7.90;99.90;;;;;;5070887;28;20173;-70
2023/11/23 01:46:36;;;;;;;12.67;6.00;;;7.90;99.90;;;;;;5070657;28;20165;-69
2023/11/23 01:49:03;;;;;;;10.70;6.27;;;7.90;99.90;;;;;;5070605;28;20424;-70
2023/11/23 01:51:29;;;;;;;7.13;5.87;;;7.80;99.90;;;;;;5070553;28;20235;-70
2023/11/23 01:53:55;;;;;;;11.65;7.00;;;7.90;99.90;;;;;;5034640;28;1050342;-70
2023/11/23 01:56:23;;;;;;;9.07;6.17;;;7.90;99.90;;;;;;5071641;28;20634;-70
2023/11/23 01:58:49;;;;;;;8.80;6.27;;;7.80;99.90;;;;;;5071433;28;20166;-70
2023/11/23 02:01:14;;;;;;;11.87;6.40;;;7.90;99.90;;;;;;5071335;28;20412;-70
2023/11/23 02:03:39;;;;;;;12.70;6.97;;;7.80;99.90;;;;;;5071331;28;20208;-70
2023/11/23 02:06:05;;;;;;;12.03;6.70;;;7.90;99.90;;;;;;5071270;28;20186;-70
2023/11/23 02:08:31;;;;;;;13.47;6.50;;;7.80;99.90;;;;;;5071514;28;20201;-70
2023/11/23 02:10:58;;;;;;;11.57;6.47;;;7.80;99.90;;;;;;5071426;28;20608;-70
2023/11/23 02:13:24;;;;;;;10.10;6.80;;;7.80;99.90;;;;;;5053473;28;20676;-70
2023/11/23 02:15:50;;;;;;;11.33;6.53;;;7.80;99.90;;;;;;5071268;28;20454;-70
2023/11/23 02:18:16;;;;;;;8.17;5.47;;;7.80;99.90;;;;;;5071206;28;20487;-70
2023/11/23 02:20:44;;;;;;;14.77;8.00;;;7.80;99.90;;;;;;5071171;28;20915;-70
2023/11/23 02:23:09;;;;;;;11.07;6.50;;;7.80;99.90;;;;;;5071363;28;20162;-70
2023/11/23 02:25:35;;;;;;;13.03;6.63;;;7.80;99.90;;;;;;5053132;28;20408;-70
2023/11/23 02:28:00;;;;;;;11.40;7.10;;;7.70;99.90;;;;;;5071241;28;20657;-70
2023/11/23 02:30:26;;;;;;;11.67;6.87;;;7.80;99.90;;;;;;5071093;28;20198;-70
2023/11/23 02:32:52;;;;;;;11.27;6.53;;;7.80;99.90;;;;;;5053094;28;20676;-70
2023/11/23 02:35:19;;;;;;;12.43;8.00;;;7.90;99.90;;;;;;5070979;28;20162;-70
2023/11/23 02:37:44;;;;;;;19.67;8.43;;;7.90;99.90;;;;;;5071068;28;20641;-70
2023/11/23 02:40:10;;;;;;;13.17;8.63;;;7.90;99.90;;;;;;5052885;28;20453;-70
2023/11/23 02:42:38;;;;;;;12.50;6.90;;;7.80;99.90;;;;;;5071220;28;20167;-70
2023/11/23 02:45:04;;;;;;;17.80;7.43;;;7.80;99.90;;;;;;5070890;28;20483;-70
2023/11/23 02:47:30;;;;;;;10.37;6.37;;;7.80;99.90;;;;;;5071116;28;20957;-70
2023/11/23 02:49:55;;;;;;;10.00;7.00;;;7.80;99.90;;;;;;5071004;28;20428;-70
2023/11/23 02:52:21;;;;;;;15.90;6.93;;;7.80;99.90;;;;;;5070856;28;20225;-70
2023/11/23 02:54:46;;;;;;;13.77;7.87;;;7.80;99.90;;;;;;5074723;28;20162;-70
2023/11/23 02:57:12;;;;;;;9.77;5.97;;;7.90;99.90;;;;;;5056276;28;20166;-70
2023/11/23 02:59:37;;;;;;;10.93;7.87;;;7.80;99.90;;;;;;5074497;28;20178;-70
2023/11/23 03:02:03;;;;;;;11.30;7.00;;;7.90;99.90;;;;;;5074246;28;20533;-70
2023/11/23 03:04:28;;;;;;;12.03;7.07;;;7.90;99.90;;;;;;5074462;28;20248;-70
2023/11/23 03:06:54;;;;;;;12.70;7.43;;;7.90;99.90;;;;;;5074301;28;20235;-70
2023/11/23 03:09:20;;;;;;;10.53;6.47;;;8.00;99.90;;;;;;5074293;28;20194;-70
2023/11/23 03:11:46;;;;;;;15.03;9.13;;;8.00;99.90;;;;;;5074045;28;20397;-70
2023/11/23 03:14:12;;;;;;;10.70;7.87;;;8.00;99.90;;;;;;5074284;28;20197;-70
2023/11/23 03:16:38;;;;;;;11.17;7.67;;;8.00;99.90;;;;;;5073988;28;20424;-70
2023/11/23 03:19:03;;;;;;;11.87;7.60;;;8.00;99.90;;;;;;5074095;28;20459;-70
2023/11/23 03:21:29;;;;;;;11.37;7.20;;;8.10;99.90;;;;;;5074116;28;20439;-70
2023/11/23 03:23:55;;;;;;;11.83;7.60;;;8.00;99.90;;;;;;5074141;28;20249;-70
2023/11/23 03:26:22;;;;;;;17.20;11.17;;;8.10;99.90;;;;;;5073894;28;20174;-70
2023/11/23 03:28:47;;;;;;;14.80;8.53;;;8.10;99.90;;;;;;5056003;28;20416;-70
2023/11/23 03:31:13;;;;;;;14.73;7.53;;;8.20;99.90;;;;;;5073804;28;20408;-70
2023/11/23 03:33:38;;;;;;;11.90;7.80;;;8.20;99.90;;;;;;5073947;28;20225;-70
2023/11/23 03:36:05;;;;;;;12.33;7.20;;;8.30;99.90;;;;;;5073812;28;20529;-70
2023/11/23 03:38:31;;;;;;;14.53;8.17;;;8.40;99.90;;;;;;5073798;28;20158;-70
2023/11/23 03:40:57;;;;;;;11.33;7.00;;;8.30;99.90;;;;;;5073703;28;20837;-70
2023/11/23 03:43:23;;;;;;;12.30;7.47;;;8.40;99.90;;;;;;5055875;28;20170;-70
2023/11/23 03:45:49;;;;;;;9.00;7.27;;;8.30;99.90;;;;;;5073486;28;20427;-70
2023/11/23 03:48:14;;;;;;;16.57;11.30;;;8.30;99.90;;;;;;5073716;28;20405;-70
2023/11/23 03:50:40;;;;;;;17.07;8.50;;;8.30;99.90;;;;;;5073507;28;20213;-70
2023/11/23 03:53:06;;;;;;;10.00;6.90;;;8.40;99.90;;;;;;5073465;28;20205;-70
2023/11/23 03:55:32;;;;;;;11.83;8.30;;;8.40;99.90;;;;;;5073428;28;20181;-70
2023/11/23 03:57:58;;;;;;;10.97;7.20;;;8.40;99.90;;;;;;5073607;28;20393;-70
2023/11/23 04:00:23;;;;;;;11.93;8.40;;;8.40;99.90;;;;;;5073093;28;20186;-70
2023/11/23 04:02:49;;;;;;;27.80;13.17;;;8.40;99.90;;;;;;5073460;28;20174;-70
2023/11/23 04:05:17;;;;;;;8.83;7.73;;;8.30;99.90;;;;;;5072287;28;20173;-70
2023/11/23 04:07:43;;;;;;;11.17;8.00;;;8.40;99.90;;;;;;5073398;28;20220;-70
2023/11/23 04:10:09;;;;;;;13.77;6.97;;;8.30;99.90;;;;;;5073154;28;20428;-70
2023/11/23 04:12:35;;;;;;;12.23;7.53;;;8.30;99.90;;;;;;5073125;28;20182;-70
2023/11/23 04:15:01;;;;;;;13.83;8.73;;;8.30;99.90;;;;;;5072880;28;20510;-70
2023/11/23 04:17:26;;;;;;;14.70;9.53;;;8.30;99.90;;;;;;5073113;28;20163;-70
2023/11/23 04:19:54;;;;;;;14.00;8.20;;;8.40;99.90;;;;;;5072957;28;20672;-70
2023/11/23 04:22:21;;;;;;;13.03;8.03;;;8.30;99.90;;;;;;5055132;28;20232;-70
2023/11/23 04:24:47;;;;;;;11.33;8.13;;;8.40;99.90;;;;;;5072984;28;20419;-70
2023/11/23 04:27:13;;;;;;;12.37;9.20;;;8.40;99.90;;;;;;5072764;28;20441;-70
2023/11/23 04:29:39;;;;;;;12.90;8.40;;;8.40;99.90;;;;;;5072725;28;20482;-70
2023/11/23 04:32:06;;;;;;;17.30;10.13;;;8.40;99.90;;;;;;5072533;28;20460;-70
2023/11/23 04:34:34;;;;;;;16.47;9.60;;;8.40;99.90;;;;;;5072819;28;20162;-70
2023/11/23 04:37:00;;;;;;;15.30;9.43;;;8.40;99.90;;;;;;5072560;28;20400;-70
2023/11/23 04:39:25;;;;;;;18.63;9.83;;;8.50;99.90;;;;;;5072579;28;20420;-70
2023/11/23 04:41:51;;;;;;;15.20;10.07;;;8.40;99.90;;;;;;5072527;28;20170;-70
2023/11/23 04:44:16;;;;;;;12.40;8.40;;;8.50;99.90;;;;;;5072522;28;20167;-70
2023/11/23 04:46:42;;;;;;;16.13;9.83;;;8.50;99.90;;;;;;5072254;28;20174;-70
2023/11/23 04:49:08;;;;;;;16.80;9.47;;;8.50;99.90;;;;;;5072349;28;20193;-70
2023/11/23 04:51:33;;;;;;;16.60;8.40;;;8.50;99.90;;;;;;5072383;28;20172;-70
2023/11/23 04:53:59;;;;;;;16.10;9.37;;;8.50;99.90;;;;;;5054127;28;20283;-70
2023/11/23 04:56:25;;;;;;;13.43;9.30;;;8.60;99.90;;;;;;5072287;28;20517;-70
2023/11/23 04:58:50;;;;;;;12.47;8.50;;;8.60;99.90;;;;;;5072082;28;20174;-70
2023/11/23 05:01:16;;;;;;;14.20;8.60;;;8.70;99.90;;;;;;5072308;28;20396;-70
2023/11/23 05:03:42;;;;;;;14.83;9.37;;;8.60;99.90;;;;;;5072178;28;20173;-70
2023/11/23 05:06:08;;;;;;;13.93;10.23;;;8.60;99.90;;;;;;5054198;28;20426;-70
2023/11/23 05:08:34;;;;;;;12.70;8.60;;;8.60;99.90;;;;;;5072148;28;20196;-70
2023/11/23 05:11:00;;;;;;;16.20;9.20;;;8.70;99.90;;;;;;5072042;28;20404;-70
2023/11/23 05:13:26;;;;;;;17.40;9.67;;;8.70;99.90;;;;;;5071939;28;20444;-70
2023/11/23 05:15:51;;;;;;;30.00;11.70;;;8.70;99.90;;;;;;5071393;28;20423;-70
2023/11/23 05:18:17;;;;;;;14.80;10.07;;;8.80;99.90;;;;;;5054123;28;20540;-70
2023/11/23 05:20:42;;;;;;;12.67;9.30;;;8.80;99.90;;;;;;5071867;28;20186;-70
2023/11/23 05:23:08;;;;;;;17.30;10.03;;;8.90;99.90;;;;;;5071987;28;20630;-70
2023/11/23 05:25:33;;;;;;;14.73;10.27;;;8.80;99.90;;;;;;5053679;28;20181;-70
2023/11/23 05:27:59;;;;;;;14.57;9.77;;;8.90;99.90;;;;;;5071882;28;20745;-70
2023/11/23 05:30:26;;;;;;;14.57;9.77;;;8.80;99.90;;;;;;5071768;28;20272;-70
2023/11/23 05:32:52;;;;;;;13.27;8.50;;;8.90;99.90;;;;;;5071822;28;20602;-70
2023/11/23 05:35:17;;;;;;;17.73;10.10;;;8.90;99.90;;;;;;5071697;28;20880;-70
2023/11/23 05:37:43;;;;;;;15.47;9.73;;;8.90;99.90;;;;;;5071862;28;20166;-70
2023/11/23 05:40:11;;;;;;;14.57;10.00;;;9.00;99.90;;;;;;5071716;28;20272;-70
2023/11/23 05:42:38;;;;;;;14.60;9.43;;;9.00;99.90;;;;;;5071681;28;20171;-70
2023/11/23 05:45:08;;;;;;;18.50;10.70;;;8.90;99.90;;;;;;5071710;28;20403;-70
2023/11/23 05:47:34;;;;;;;12.97;8.97;;;8.90;99.90;;;;;;5053688;28;20781;-70
2023/11/23 05:50:01;;;;;;;11.43;8.83;;;8.90;99.90;;;;;;5071329;28;20890;-70
2023/11/23 05:52:30;;;;;;;16.07;8.97;;;8.90;99.90;;;;;;5071483;28;20463;-70
2023/11/23 05:54:56;;;;;;;18.03;9.73;;;8.90;99.90;;;;;;5071646;28;20435;-70
2023/11/23 05:57:23;;;;;;;16.20;10.27;;;9.00;99.90;;;;;;5071490;28;20974;-70
2023/11/23 05:59:50;;;;;;;12.10;9.17;;;8.90;99.90;;;;;;5071521;28;20938;-70
2023/11/23 06:02:15;;;;;;;16.20;10.60;;;9.00;99.90;;;;;;5071601;28;20402;-71
2023/11/23 06:04:41;;;;;;;13.17;9.20;;;9.00;99.90;;;;;;5071511;28;20412;-70
2023/11/23 06:07:10;;;;;;;14.20;9.80;;;9.00;99.90;;;;;;5071489;28;20166;-70
2023/11/23 06:09:39;;;;;;;16.40;10.10;;;9.00;99.90;;;;;;5071468;28;20500;-70
2023/11/23 06:12:05;;;;;;;13.03;9.67;;;9.10;99.90;;;;;;5071342;28;20451;-70
2023/11/23 06:14:37;;;;;;;17.30;10.90;;;9.10;99.90;;;;;;5071523;28;20405;-70
2023/11/23 06:17:04;;;;;;;13.53;9.13;;;9.10;99.90;;;;;;5071299;28;20401;-70
2023/11/23 06:19:30;;;;;;;14.50;9.67;;;9.10;99.90;;;;;;5071432;28;20513;-70
2023/11/23 06:21:55;;;;;;;16.70;11.33;;;9.10;99.90;;;;;;5071297;28;20475;-70
2023/11/23 06:24:22;;;;;;;16.27;10.17;;;9.20;99.90;;;;;;5071412;28;20190;-70
2023/11/23 06:26:48;;;;;;;20.00;10.67;;;9.20;99.90;;;;;;5071061;28;20251;-70
2023/11/23 06:29:15;;;;;;;14.07;8.83;;;9.30;99.90;;;;;;5074253;28;20543;-70
2023/11/23 06:31:40;;;;;;;16.27;10.40;;;9.30;99.90;;;;;;5074908;28;20217;-70
2023/11/23 06:34:06;;;;;;;14.00;9.60;;;9.30;99.90;;;;;;5074997;28;20448;-70
2023/11/23 06:36:31;;;;;;;16.07;10.10;;;9.30;99.90;;;;;;5074834;28;20165;-70
2023/11/23 06:38:57;;;;;;;15.90;9.90;;;9.30;99.90;;;;;;5074936;28;20181;-70
2023/11/23 06:41:22;;;;;;;14.07;10.20;;;9.30;99.90;;;;;;5074964;28;20173;-70
2023/11/23 06:43:52;;;;;;;13.27;9.40;;;9.30;99.90;;;;;;5074952;28;20166;-71
2023/11/23 06:46:18;;;;;;;15.07;10.80;;;9.40;99.90;;;;;;5074601;28;20166;-70
2023/11/23 06:48:44;;;;;;;17.73;10.47;;;9.40;99.90;;;;;;5074663;28;20397;-70
2023/11/23 06:51:11;;;;;;;14.53;10.90;;;9.50;99.90;;;;;;5074688;28;20412;-70
2023/11/23 06:53:48;;;;;;;15.30;9.93;;;9.40;99.90;;;;;;5074553;28;20460;-70
2023/11/23 06:56:15;;;;;;;14.00;10.20;;;9.50;99.90;;;;;;5074450;28;20482;-70
2023/11/23 06:58:48;;;;;;;15.70;10.70;;;9.40;99.90;;;;;;5074589;28;20771;-70
2023/11/23 07:01:14;;;;;;;17.27;11.17;;;9.40;99.90;;;;;;5074538;28;20403;-70
2023/11/23 07:03:44;;;;;;;18.13;10.20;;;9.40;99.90;;;;;;5074479;28;20410;-70
2023/11/23 07:06:10;;;;;;;19.33;11.60;;;9.50;99.90;;;;;;5074360;28;20778;-70
2023/11/23 07:08:37;;;;;;;17.90;10.57;;;9.50;99.90;;;;;;5056376;28;20436;-70
2023/11/23 07:11:07;;;;;;;16.97;11.27;;;9.40;99.90;;;;;;5074295;28;20922;-70
2023/11/23 07:13:33;;;;;;;18.80;11.27;;;9.50;99.90;;;;;;5074243;28;20454;-70
2023/11/23 07:16:01;;;;;;;16.93;10.40;;;9.50;99.90;;;;;;5074166;28;20429;-70
2023/11/23 07:18:26;;;;;;;15.27;9.17;;;9.40;99.90;;;;;;5074326;28;20401;-70
2023/11/23 07:20:55;;;;;;;18.07;10.03;;;9.50;99.90;;;;;;5074115;28;20431;-70
2023/11/23 07:23:24;;;;;;;15.83;10.80;;;9.50;99.90;;;;;;5074228;28;20582;-70
2023/11/23 07:25:50;;;;;;;18.30;10.20;;;9.50;99.90;;;;;;5073992;28;20404;-70
2023/11/23 07:28:16;;;;;;;15.40;10.10;;;9.60;99.90;;;;;;5074145;28;20430;-70
2023/11/23 07:30:42;;;;;;;20.40;11.50;;;9.70;99.90;;;;;;5073677;28;20432;-70
2023/11/23 07:33:08;;;;;;;18.30;10.20;;;9.70;99.90;;;;;;5073704;28;20498;-70
2023/11/23 07:35:34;;;;;;;16.10;10.67;;;9.70;99.90;;;;;;5073802;28;20396;-70
2023/11/23 07:38:03;;;;;;;18.47;10.67;;;9.80;99.90;;;;;;5073857;28;20404;-70
2023/11/23 07:40:28;;;;;;;17.53;10.47;;;9.70;99.90;;;;;;5073681;28;20428;-70
2023/11/23 07:42:54;;;;;;;17.13;11.53;;;9.70;99.90;;;;;;5073824;28;20891;-70
2023/11/23 07:45:20;;;;;;;13.57;10.30;;;9.80;99.90;;;;;;5073505;28;20166;-70
2023/11/23 07:47:46;;;;;;;15.87;10.57;;;9.80;99.90;;;;;;5055853;28;20174;-70
2023/11/23 07:50:16;;;;;;;10.67;8.40;;;9.90;99.90;;;;;;5073602;28;20224;-70
2023/11/23 07:52:46;;;;;;;16.50;10.70;;;10.00;99.90;;;;;;5073325;28;20452;-70
2023/11/23 07:55:18;;;;;;;16.97;11.43;;;9.90;99.90;;;;;;5073427;28;20432;-70
2023/11/23 07:57:51;;;;;;;18.20;11.70;;;9.90;99.90;;;;;;5073543;28;20403;-70
2023/11/23 08:00:18;;;;;;;15.23;9.97;;;10.00;99.90;;;;;;5073464;28;20433;-70
2023/11/23 08:02:44;;;;;;;13.97;10.00;;;10.00;99.90;;;;;;5073273;28;20396;-70
2023/11/23 08:05:10;;;;;;;16.93;10.43;;;10.00;99.90;;;;;;5072964;28;20415;-70
2023/11/23 08:07:35;;;;;;;12.30;9.33;;;10.00;99.90;;;;;;5073377;28;20224;-70
2023/11/23 08:10:05;;;;;;;14.23;10.10;;;10.00;99.90;;;;;;5073098;28;20186;-70
2023/11/23 08:12:32;;;;;;;13.87;9.40;;;10.20;99.90;;;;;;5073176;28;20186;-70
2023/11/23 08:14:57;;;;;;;15.87;9.60;;;10.10;99.90;;;;;;5073278;28;20489;-70
2023/11/23 08:17:23;;;;;;;17.43;11.60;;;10.30;99.90;;;;;;5073015;28;20942;-70
2023/11/23 08:19:48;;;;;;;14.13;11.10;;;10.20;99.90;;;;;;5072956;28;20201;-70
2023/11/23 08:22:16;;;;;;;11.27;7.63;;;10.30;99.90;;;;;;5073053;28;20208;-70
2023/11/23 08:24:42;;;;;;;19.30;11.00;;;10.20;99.90;;;;;;5072950;28;20913;-70
2023/11/23 08:27:07;;;;;;;16.83;9.60;;;10.30;99.90;;;;;;5072767;28;20444;-70
2023/11/23 08:29:33;;;;;;;16.83;12.10;;;10.30;99.90;;;;;;5072842;28;20186;-70
2023/11/23 08:31:58;;;;;;;15.53;10.60;;;10.30;99.90;;;;;;5072692;28;20174;-70
2023/11/23 08:34:24;;;;;;;14.77;10.23;;;10.30;99.90;;;;;;5072787;28;20249;-71
2023/11/23 08:36:50;;;;;;;14.70;9.93;;;10.40;99.90;;;;;;5072575;28;20167;-70
2023/11/23 08:39:19;;;;;;;13.33;9.00;;;10.30;99.90;;;;;;5072506;28;20417;-70
2023/11/23 08:41:45;;;;;;;12.60;7.97;;;10.50;99.90;;;;;;5072568;28;20169;-70
2023/11/23 08:44:11;;;;;;;16.87;10.00;;;10.60;99.90;;;;;;5072548;28;20450;-70
2023/11/23 08:46:40;;;;;;;12.10;9.23;;;10.70;99.90;;;;;;5072466;28;20393;-70
2023/11/23 08:49:05;;;;;;;10.50;9.27;;;10.70;99.90;;;;;;5072538;28;20178;-70
2023/11/23 08:51:31;;;;;;;14.77;10.20;;;10.70;99.90;;;;;;5071934;28;20750;-70
2023/11/23 08:53:57;;;;;;;21.70;10.33;;;10.70;99.90;;;;;;5072234;28;20198;-70
2023/11/23 08:56:22;;;;;;;14.50;9.27;;;10.70;99.90;;;;;;5072232;28;20241;-70
2023/11/23 08:58:48;;;;;;;14.73;9.80;;;10.80;99.90;;;;;;5072323;28;20174;-70
2023/11/23 09:01:14;;;;;;;15.83;9.70;;;10.80;99.90;;;;;;5072294;28;20184;-70
2023/11/23 09:03:40;;;;;;;15.37;10.90;;;10.90;99.90;;;;;;5072270;28;20405;-70
2023/11/23 09:06:08;;;;;;;19.73;11.07;;;10.90;99.90;;;;;;5072079;28;20440;-70
2023/11/23 09:08:33;;;;;;;13.50;9.50;;;11.00;99.90;;;;;;5072111;28;20401;-70
2023/11/23 09:10:59;;;;;;;17.40;9.40;;;11.10;99.90;;;;;;5072051;28;20775;-70
2023/11/23 09:13:29;;;;;;;14.90;9.40;;;11.00;99.90;;;;;;5072056;28;20285;-71
2023/11/23 09:15:55;;;;;;;11.93;9.07;;;11.10;99.90;;;;;;5072030;28;20577;-70
2023/11/23 09:18:24;;;;;;;12.30;9.50;;;11.20;99.90;;;;;;5054170;28;20444;-70
2023/11/23 09:20:50;;;;;;;12.63;9.33;;;11.30;99.90;;;;;;5071923;28;20190;-70
2023/11/23 09:23:17;;;;;;;10.00;8.43;;;11.30;99.90;;;;;;5072010;28;20404;-71
2023/11/23 09:25:46;;;;;;;12.17;9.33;;;11.20;99.90;;;;;;5071819;28;20412;-70
2023/11/23 09:28:12;;;;;;;15.93;9.67;;;11.20;99.90;;;;;;5072014;28;20408;-70
2023/11/23 09:30:38;;;;;;;16.20;8.43;;;11.10;99.90;;;;;;5071844;28;20837;-70
2023/11/23 09:33:09;;;;;;;14.07;9.10;;;11.30;99.90;;;;;;5071798;28;20711;-71
2023/11/23 09:35:38;;;;;;;12.80;7.73;;;11.30;99.90;;;;;;5071722;28;20478;-70
2023/11/23 09:38:04;;;;;;;11.50;8.43;;;11.30;99.90;;;;;;5071809;28;20392;-71
2023/11/23 09:40:30;;;;;;;13.00;9.10;;;11.20;99.90;;;;;;5071806;28;20428;-70
2023/11/23 09:42:56;;;;;;;14.70;9.13;;;11.30;99.90;;;;;;5071934;28;20404;-72
2023/11/23 09:45:24;;;;;;;13.23;8.97;;;11.50;99.90;;;;;;5053718;28;20404;-71
2023/11/23 09:47:50;;;;;;;11.67;8.73;;;11.60;99.90;;;;;;5071735;28;20405;-71
2023/11/23 09:50:19;;;;;;;12.17;7.63;;;11.50;99.90;;;;;;5071557;28;20424;-72
2023/11/23 09:52:46;;;;;;;9.53;8.40;;;11.50;99.90;;;;;;5053243;28;20464;-71
2023/11/23 09:55:16;;;;;;;12.13;9.70;;;11.60;99.90;;;;;;5053546;28;20413;-72
2023/11/23 09:57:45;;;;;;;11.30;7.83;;;11.70;99.90;;;;;;5071793;28;20392;-71
2023/11/23 10:00:14;;;;;;;9.57;7.77;;;11.80;99.90;;;;;;5071853;28;20420;-71
2023/11/23 10:02:41;;;;;;;10.07;8.30;;;11.90;99.90;;;;;;5072396;28;20469;-72
2023/11/23 10:05:09;;;;;;;17.33;9.07;;;11.80;99.90;;;;;;5075525;28;20435;-72
2023/11/23 10:07:35;;;;;;;10.77;8.23;;;11.80;99.90;;;;;;5057706;28;20482;-71
2023/11/23 10:10:05;;;;;;;12.57;8.13;;;11.60;99.90;;;;;;5075475;28;20451;-71
2023/11/23 10:12:31;;;;;;;10.13;7.57;;;11.60;99.90;;;;;;5075424;28;20440;-71
2023/11/23 10:14:56;;;;;;;8.17;7.17;;;11.60;99.90;;;;;;5075592;28;20450;-71
2023/11/23 10:17:22;;;;;;;11.60;8.00;;;11.70;99.90;;;;;;5075292;28;20236;-72
2023/11/23 10:19:49;;;;;;;10.87;7.70;;;11.70;99.90;;;;;;5075333;28;20179;-71
2023/11/23 10:22:15;;;;;;;16.60;8.30;;;11.80;99.90;;;;;;5075320;28;20436;-72
2023/11/23 10:24:50;;;;;;;12.57;8.37;;;11.70;99.90;;;;;;5075335;28;20941;-71
2023/11/23 10:27:16;;;;;;;12.60;7.10;;;11.60;99.90;;;;;;5074981;28;20399;-71
2023/11/23 10:29:42;;;;;;;13.80;7.60;;;11.70;99.90;;;;;;5057241;28;20451;-71
2023/11/23 10:32:09;;;;;;;11.67;8.43;;;11.70;99.90;;;;;;5074910;28;20408;-71
2023/11/23 10:34:39;;;;;;;6.90;6.20;;;11.70;99.90;;;;;;5075356;28;20154;-71
2023/11/23 10:37:05;;;;;;;11.57;6.30;;;11.60;99.90;;;;;;5074813;28;20481;-71
2023/11/23 10:39:31;;;;;;;9.20;6.47;;;11.80;99.90;;;;;;5074893;28;20870;-72
2023/11/23 10:41:59;;;;;;;15.20;6.80;;;11.80;99.90;;;;;;5056977;28;20162;-71
2023/11/23 10:44:29;;;;;;;8.10;6.50;;;11.70;99.90;;;;;;5074869;28;20411;-71
2023/11/23 10:47:02;;;;;;;6.60;6.00;;;11.80;99.90;;;;;;5074670;28;20907;-71
2023/11/23 10:49:32;;;;;;;9.53;7.03;;;11.70;99.90;;;;;;5056888;28;20471;-72
2023/11/23 10:51:59;;;;;;;9.20;7.47;;;11.70;99.90;;;;;;5074403;28;20427;-71
2023/11/23 10:54:24;;;;;;;7.93;6.27;;;11.70;99.90;;;;;;5074835;28;20619;-71
2023/11/23 10:56:51;;;;;;;7.40;6.67;;;11.70;99.90;;;;;;5074487;28;20400;-71
2023/11/23 10:59:20;;;;;;;11.00;6.13;;;11.70;99.90;;;;;;5074549;28;20612;-71
2023/11/23 11:01:49;;;;;;;10.77;6.93;;;11.70;99.90;;;;;;5074717;28;20393;-71
2023/11/23 11:04:15;;;;;;;13.03;7.37;;;11.70;99.90;;;;;;5074638;28;20742;-71
2023/11/23 11:06:41;;;;;;;10.50;6.30;;;11.80;99.90;;;;;;5074349;28;20487;-71
2023/11/23 11:09:14;;;;;;;10.83;6.87;;;11.80;99.90;;;;;;5074495;28;20603;-71
2023/11/23 11:11:45;;;;;;;7.10;5.73;;;11.80;99.90;;;;;;5074381;28;20397;-71
2023/11/23 11:14:16;;;;;;;9.07;5.13;;;11.80;99.90;;;;;;5073907;28;20500;-70
2023/11/23 11:16:42;;;;;;;7.20;5.93;;;11.90;99.90;;;;;;5074373;28;20400;-70
2023/11/23 11:19:11;;;;;;;6.47;5.83;;;12.00;99.90;;;;;;5074376;28;21005;-70
2023/11/23 11:21:42;;;;;;;8.00;5.70;;;11.90;99.90;;;;;;5074455;28;20393;-70
2023/11/23 11:24:20;;;;;;;6.30;5.70;;;11.90;99.90;;;;;;5074349;28;20766;-70
2023/11/23 11:26:49;;;;;;;6.43;5.80;;;12.00;99.90;;;;;;5074235;28;20392;-70
2023/11/23 11:29:18;;;;;;;8.67;5.40;;;12.10;99.90;;;;;;5074290;28;20425;-70
2023/11/23 11:31:48;;;;;;;8.23;5.73;;;12.10;99.90;;;;;;5056375;28;20766;-69
2023/11/23 11:34:21;;;;;;;9.87;5.83;;;12.10;99.90;;;;;;5074278;28;20528;-70
2023/11/23 11:36:58;;;;;;;6.93;4.63;;;12.10;99.90;;;;;;5073737;28;20400;-70
2023/11/23 11:39:32;;;;;;;6.73;6.03;;;12.20;99.90;;;;;;5074043;28;20416;-70
2023/11/23 11:41:59;;;;;;;6.03;4.73;;;12.30;99.90;;;;;;5073966;28;20400;-70
2023/11/23 11:44:29;;;;;;;8.90;5.53;;;12.40;99.90;;;;;;5074033;28;20412;-70
2023/11/23 11:46:57;;;;;;;8.40;5.90;;;12.30;99.90;;;;;;5073838;28;20405;-70
2023/11/23 11:49:24;;;;;;;8.40;6.43;;;12.30;99.90;;;;;;5073908;28;20424;-70
2023/11/23 11:51:50;;;;;;;6.50;4.93;;;12.20;99.90;;;;;;5073593;28;20915;-70
2023/11/23 11:54:27;;;;;;;5.97;5.47;;;12.20;99.90;;;;;;5073552;28;20452;-70
2023/11/23 11:56:53;;;;;;;13.47;5.47;;;12.20;99.90;;;;;;5073689;28;20788;-70
2023/11/23 11:59:21;;;;;;;7.60;5.57;;;12.30;99.90;;;;;;5073577;28;20416;-69
2023/11/23 12:01:47;;;;;;;5.30;4.53;;;12.30;99.90;;;;;;5073387;28;20439;-70
2023/11/23 12:04:18;;;;;;;6.13;4.50;;;12.40;99.90;;;;;;5073551;28;20401;-70
2023/11/23 12:06:48;;;;;;;9.80;5.60;;;12.40;99.90;;;;;;5073356;28;20412;-70
2023/11/23 12:09:19;;;;;;;4.93;4.43;;;12.40;99.90;;;;;;5073418;28;20428;-70
2023/11/23 12:11:46;;;;;;;7.50;5.00;;;12.50;99.90;;;;;;5073344;28;20466;-70
2023/11/23 12:14:12;;;;;;;6.50;5.20;;;12.50;99.90;;;;;;5072964;28;20448;-70
2023/11/23 12:16:38;;;;;;;5.73;4.50;;;12.60;99.90;;;;;;5073091;28;20407;-70
2023/11/23 12:19:17;;;;;;;7.30;5.20;;;12.60;99.90;;;;;;5072908;28;20423;-70
2023/11/23 12:21:42;;;;;;;4.73;4.23;;;12.60;99.90;;;;;;5072894;28;20422;-70
2023/11/23 12:24:09;;;;;;;7.23;4.57;;;12.60;99.90;;;;;;5054992;28;20416;-70
2023/11/23 12:26:37;;;;;;;5.50;4.73;;;12.60;99.90;;;;;;5053919;28;20179;-71
2023/11/23 12:29:03;;;;;;;5.77;4.40;;;12.60;99.90;;;;;;5072830;28;20420;-70
2023/11/23 12:31:29;;;;;;;6.50;4.80;;;12.70;99.90;;;;;;5072886;28;20412;-70
2023/11/23 12:33:54;;;;;;;6.90;4.70;;;12.60;99.90;;;;;;5072761;28;21045;-70
2023/11/23 12:36:20;;;;;;;6.03;5.03;;;12.50;99.90;;;;;;5072701;28;20181;-70
2023/11/23 12:38:46;;;;;;;5.17;4.57;;;12.50;99.90;;;;;;5054797;28;20166;-70
2023/11/23 12:41:11;;;;;;;7.83;4.00;;;12.50;99.90;;;;;;5072661;28;20181;-70